sensor_id;sensor_type;location;lat;lon;timestamp;P1;durP1;ratioP1;P2;durP2;ratioP2
79399;SDS011;68856;45.586;10.264;2023-05-10T00:01:33;3.10;;;2.35;;
79399;SDS011;68856;45.586;10.264;2023-05-10T00:03:59;3.28;;;2.80;;
79399;SDS011;68856;45.586;10.264;2023-05-10T00:06:25;2.47;;;2.28;;
79399;SDS011;68856;45.586;10.264;2023-05-10T00:08:52;2.47;;;2.28;;
79399;SDS011;68856;45.586;10.264;2023-05-10T00:11:19;2.38;;;2.15;;
79399;SDS011;68856;45.586;10.264;2023-05-10T00:13:45;3.03;;;2.15;;
79399;SDS011;68856;45.586;10.264;2023-05-10T00:16:12;2.33;;;2.13;;
79399;SDS011;68856;45.586;10.264;2023-05-10T00:18:38;1.92;;;1.83;;
79399;SDS011;68856;45.586;10.264;2023-05-10T00:21:05;3.55;;;2.03;;
79399;SDS011;68856;45.586;10.264;2023-05-10T00:23:31;2.20;;;2.05;;
79399;SDS011;68856;45.586;10.264;2023-05-10T00:25:58;2.90;;;2.15;;
79399;SDS011;68856;45.586;10.264;2023-05-10T00:28:24;3.58;;;2.13;;
79399;SDS011;68856;45.586;10.264;2023-05-10T00:30:52;2.28;;;2.05;;
79399;SDS011;68856;45.586;10.264;2023-05-10T00:33:18;2.20;;;1.92;;
79399;SDS011;68856;45.586;10.264;2023-05-10T00:35:44;2.40;;;2.20;;
79399;SDS011;68856;45.586;10.264;2023-05-10T00:38:10;3.25;;;2.30;;
79399;SDS011;68856;45.586;10.264;2023-05-10T00:40:37;2.88;;;2.67;;
79399;SDS011;68856;45.586;10.264;2023-05-10T00:43:03;3.00;;;2.22;;
79399;SDS011;68856;45.586;10.264;2023-05-10T00:45:33;3.42;;;2.67;;
79399;SDS011;68856;45.586;10.264;2023-05-10T00:50:27;3.28;;;2.63;;
79399;SDS011;68856;45.586;10.264;2023-05-10T00:52:54;2.45;;;2.25;;
79399;SDS011;68856;45.586;10.264;2023-05-10T00:55:20;2.80;;;2.50;;
79399;SDS011;68856;45.586;10.264;2023-05-10T00:57:47;2.63;;;2.42;;
79399;SDS011;68856;45.586;10.264;2023-05-10T01:00:14;3.03;;;2.53;;
79399;SDS011;68856;45.586;10.264;2023-05-10T01:02:46;3.90;;;3.07;;
79399;SDS011;68856;45.586;10.264;2023-05-10T01:05:14;3.53;;;2.75;;
79399;SDS011;68856;45.586;10.264;2023-05-10T01:07:40;3.13;;;2.80;;
79399;SDS011;68856;45.586;10.264;2023-05-10T01:10:07;3.83;;;2.97;;
79399;SDS011;68856;45.586;10.264;2023-05-10T01:12:35;3.05;;;2.75;;
79399;SDS011;68856;45.586;10.264;2023-05-10T01:15:07;2.97;;;2.72;;
79399;SDS011;68856;45.586;10.264;2023-05-10T01:17:36;2.88;;;2.63;;
79399;SDS011;68856;45.586;10.264;2023-05-10T01:20:05;3.10;;;2.58;;
79399;SDS011;68856;45.586;10.264;2023-05-10T01:25:11;2.50;;;2.25;;
79399;SDS011;68856;45.586;10.264;2023-05-10T01:33:30;3.10;;;2.50;;
79399;SDS011;68856;45.586;10.264;2023-05-10T01:39:20;2.58;;;2.38;;
79399;SDS011;68856;45.586;10.264;2023-05-10T01:44:28;3.58;;;2.60;;
79399;SDS011;68856;45.586;10.264;2023-05-10T01:47:04;3.28;;;2.80;;
79399;SDS011;68856;45.586;10.264;2023-05-10T01:49:32;2.50;;;2.28;;
79399;SDS011;68856;45.586;10.264;2023-05-10T01:52:12;3.33;;;2.80;;
79399;SDS011;68856;45.586;10.264;2023-05-10T01:54:52;6.50;;;2.67;;
79399;SDS011;68856;45.586;10.264;2023-05-10T01:57:31;3.65;;;2.90;;
79399;SDS011;68856;45.586;10.264;2023-05-10T01:59:59;2.92;;;2.63;;
79399;SDS011;68856;45.586;10.264;2023-05-10T02:02:28;2.70;;;2.50;;
79399;SDS011;68856;45.586;10.264;2023-05-10T02:04:58;2.45;;;2.25;;
79399;SDS011;68856;45.586;10.264;2023-05-10T02:07:26;4.00;;;2.42;;
79399;SDS011;68856;45.586;10.264;2023-05-10T02:09:53;4.32;;;2.80;;
79399;SDS011;68856;45.586;10.264;2023-05-10T02:12:20;3.63;;;2.20;;
79399;SDS011;68856;45.586;10.264;2023-05-10T02:14:49;2.58;;;2.38;;
79399;SDS011;68856;45.586;10.264;2023-05-10T02:17:17;4.15;;;2.55;;
79399;SDS011;68856;45.586;10.264;2023-05-10T02:19:45;2.80;;;2.45;;
79399;SDS011;68856;45.586;10.264;2023-05-10T02:22:12;2.90;;;2.65;;
79399;SDS011;68856;45.586;10.264;2023-05-10T02:24:40;2.88;;;2.42;;
79399;SDS011;68856;45.586;10.264;2023-05-10T02:27:08;3.20;;;2.45;;
79399;SDS011;68856;45.586;10.264;2023-05-10T02:29:37;2.38;;;2.10;;
79399;SDS011;68856;45.586;10.264;2023-05-10T02:32:04;2.25;;;2.05;;
79399;SDS011;68856;45.586;10.264;2023-05-10T02:34:31;2.40;;;2.20;;
79399;SDS011;68856;45.586;10.264;2023-05-10T02:36:58;2.90;;;2.40;;
79399;SDS011;68856;45.586;10.264;2023-05-10T02:39:27;2.50;;;2.30;;
79399;SDS011;68856;45.586;10.264;2023-05-10T02:41:55;2.72;;;2.15;;
79399;SDS011;68856;45.586;10.264;2023-05-10T02:44:22;2.55;;;2.28;;
79399;SDS011;68856;45.586;10.264;2023-05-10T02:46:51;2.42;;;2.22;;
79399;SDS011;68856;45.586;10.264;2023-05-10T02:49:17;4.00;;;2.33;;
79399;SDS011;68856;45.586;10.264;2023-05-10T02:51:45;3.35;;;2.38;;
79399;SDS011;68856;45.586;10.264;2023-05-10T02:54:18;2.53;;;2.22;;
79399;SDS011;68856;45.586;10.264;2023-05-10T02:56:53;2.47;;;2.28;;
79399;SDS011;68856;45.586;10.264;2023-05-10T02:59:25;2.92;;;2.45;;
79399;SDS011;68856;45.586;10.264;2023-05-10T03:01:52;2.40;;;2.20;;
79399;SDS011;68856;45.586;10.264;2023-05-10T03:04:18;2.10;;;1.95;;
79399;SDS011;68856;45.586;10.264;2023-05-10T03:06:45;2.40;;;2.20;;
79399;SDS011;68856;45.586;10.264;2023-05-10T03:09:12;2.30;;;2.10;;
79399;SDS011;68856;45.586;10.264;2023-05-10T03:17:12;3.22;;;2.13;;
79399;SDS011;68856;45.586;10.264;2023-05-10T03:24:56;2.20;;;2.10;;
79399;SDS011;68856;45.586;10.264;2023-05-10T03:27:23;2.03;;;1.55;;
79399;SDS011;68856;45.586;10.264;2023-05-10T03:29:52;2.55;;;2.35;;
79399;SDS011;68856;45.586;10.264;2023-05-10T03:32:20;3.58;;;2.50;;
79399;SDS011;68856;45.586;10.264;2023-05-10T03:34:47;3.03;;;2.38;;
79399;SDS011;68856;45.586;10.264;2023-05-10T03:37:13;3.45;;;2.47;;
79399;SDS011;68856;45.586;10.264;2023-05-10T03:39:39;3.72;;;2.33;;
79399;SDS011;68856;45.586;10.264;2023-05-10T03:42:05;2.63;;;2.35;;
79399;SDS011;68856;45.586;10.264;2023-05-10T03:44:32;2.35;;;2.20;;
79399;SDS011;68856;45.586;10.264;2023-05-10T03:46:58;3.28;;;2.47;;
79399;SDS011;68856;45.586;10.264;2023-05-10T03:49:24;3.15;;;2.85;;
79399;SDS011;68856;45.586;10.264;2023-05-10T03:51:51;3.00;;;2.75;;
79399;SDS011;68856;45.586;10.264;2023-05-10T03:54:17;3.10;;;2.60;;
79399;SDS011;68856;45.586;10.264;2023-05-10T03:56:43;2.85;;;2.50;;
79399;SDS011;68856;45.586;10.264;2023-05-10T03:59:10;2.92;;;2.63;;
79399;SDS011;68856;45.586;10.264;2023-05-10T04:01:36;3.03;;;2.45;;
79399;SDS011;68856;45.586;10.264;2023-05-10T04:04:02;3.45;;;2.92;;
79399;SDS011;68856;45.586;10.264;2023-05-10T04:06:28;3.75;;;2.90;;
79399;SDS011;68856;45.586;10.264;2023-05-10T04:08:55;2.75;;;2.25;;
79399;SDS011;68856;45.586;10.264;2023-05-10T04:11:24;4.15;;;2.60;;
79399;SDS011;68856;45.586;10.264;2023-05-10T04:13:51;2.30;;;2.10;;
79399;SDS011;68856;45.586;10.264;2023-05-10T04:16:17;3.25;;;2.67;;
79399;SDS011;68856;45.586;10.264;2023-05-10T04:18:43;2.38;;;2.17;;
79399;SDS011;68856;45.586;10.264;2023-05-10T04:21:13;2.65;;;2.25;;
79399;SDS011;68856;45.586;10.264;2023-05-10T04:23:39;2.65;;;2.38;;
79399;SDS011;68856;45.586;10.264;2023-05-10T04:26:06;4.28;;;2.83;;
79399;SDS011;68856;45.586;10.264;2023-05-10T04:28:32;3.75;;;2.95;;
79399;SDS011;68856;45.586;10.264;2023-05-10T04:31:02;4.13;;;2.50;;
79399;SDS011;68856;45.586;10.264;2023-05-10T04:33:29;3.67;;;2.58;;
79399;SDS011;68856;45.586;10.264;2023-05-10T04:35:56;3.05;;;2.60;;
79399;SDS011;68856;45.586;10.264;2023-05-10T04:38:22;2.58;;;2.38;;
79399;SDS011;68856;45.586;10.264;2023-05-10T04:40:48;2.67;;;2.40;;
79399;SDS011;68856;45.586;10.264;2023-05-10T04:43:15;4.10;;;3.05;;
79399;SDS011;68856;45.586;10.264;2023-05-10T04:45:41;2.83;;;2.47;;
79399;SDS011;68856;45.586;10.264;2023-05-10T04:48:07;3.85;;;2.28;;
79399;SDS011;68856;45.586;10.264;2023-05-10T04:50:34;2.92;;;2.47;;
79399;SDS011;68856;45.586;10.264;2023-05-10T04:53:00;3.63;;;2.60;;
79399;SDS011;68856;45.586;10.264;2023-05-10T04:55:26;2.63;;;2.42;;
79399;SDS011;68856;45.586;10.264;2023-05-10T04:57:53;2.97;;;2.65;;
79399;SDS011;68856;45.586;10.264;2023-05-10T05:00:21;2.83;;;2.53;;
79399;SDS011;68856;45.586;10.264;2023-05-10T05:02:48;3.17;;;2.20;;
79399;SDS011;68856;45.586;10.264;2023-05-10T05:05:15;2.78;;;2.55;;
79399;SDS011;68856;45.586;10.264;2023-05-10T05:07:41;2.78;;;2.38;;
79399;SDS011;68856;45.586;10.264;2023-05-10T05:10:07;3.78;;;2.30;;
79399;SDS011;68856;45.586;10.264;2023-05-10T05:12:34;4.90;;;2.50;;
79399;SDS011;68856;45.586;10.264;2023-05-10T05:15:01;4.10;;;2.67;;
79399;SDS011;68856;45.586;10.264;2023-05-10T05:17:29;2.88;;;2.60;;
79399;SDS011;68856;45.586;10.264;2023-05-10T05:19:56;3.08;;;2.45;;
79399;SDS011;68856;45.586;10.264;2023-05-10T05:22:22;2.85;;;2.65;;
79399;SDS011;68856;45.586;10.264;2023-05-10T05:24:56;2.45;;;2.25;;
79399;SDS011;68856;45.586;10.264;2023-05-10T05:27:23;4.45;;;2.85;;
79399;SDS011;68856;45.586;10.264;2023-05-10T05:29:54;2.28;;;2.00;;
79399;SDS011;68856;45.586;10.264;2023-05-10T05:32:21;3.22;;;2.45;;
79399;SDS011;68856;45.586;10.264;2023-05-10T05:34:48;2.50;;;2.30;;
79399;SDS011;68856;45.586;10.264;2023-05-10T05:37:15;2.22;;;2.03;;
79399;SDS011;68856;45.586;10.264;2023-05-10T05:39:42;2.50;;;2.30;;
79399;SDS011;68856;45.586;10.264;2023-05-10T05:42:09;3.17;;;2.60;;
79399;SDS011;68856;45.586;10.264;2023-05-10T05:44:36;2.80;;;2.40;;
79399;SDS011;68856;45.586;10.264;2023-05-10T05:47:03;5.15;;;2.88;;
79399;SDS011;68856;45.586;10.264;2023-05-10T05:49:29;2.60;;;2.40;;
79399;SDS011;68856;45.586;10.264;2023-05-10T05:52:02;4.80;;;2.67;;
79399;SDS011;68856;45.586;10.264;2023-05-10T05:54:29;4.20;;;2.08;;
79399;SDS011;68856;45.586;10.264;2023-05-10T05:56:56;4.10;;;3.40;;
79399;SDS011;68856;45.586;10.264;2023-05-10T05:59:24;3.13;;;2.30;;
79399;SDS011;68856;45.586;10.264;2023-05-10T06:01:50;2.70;;;2.50;;
79399;SDS011;68856;45.586;10.264;2023-05-10T06:04:17;5.22;;;4.03;;
79399;SDS011;68856;45.586;10.264;2023-05-10T06:06:44;3.58;;;3.20;;
79399;SDS011;68856;45.586;10.264;2023-05-10T06:09:10;4.68;;;3.28;;
79399;SDS011;68856;45.586;10.264;2023-05-10T06:11:37;3.55;;;3.25;;
79399;SDS011;68856;45.586;10.264;2023-05-10T06:14:04;3.42;;;3.13;;
79399;SDS011;68856;45.586;10.264;2023-05-10T06:16:32;4.13;;;3.28;;
79399;SDS011;68856;45.586;10.264;2023-05-10T06:19:01;3.38;;;3.03;;
79399;SDS011;68856;45.586;10.264;2023-05-10T06:21:28;2.97;;;2.63;;
79399;SDS011;68856;45.586;10.264;2023-05-10T06:23:55;3.13;;;2.22;;
79399;SDS011;68856;45.586;10.264;2023-05-10T06:26:21;3.67;;;2.92;;
79399;SDS011;68856;45.586;10.264;2023-05-10T06:28:47;4.53;;;3.25;;
79399;SDS011;68856;45.586;10.264;2023-05-10T06:31:13;4.65;;;3.30;;
79399;SDS011;68856;45.586;10.264;2023-05-10T06:33:41;4.57;;;2.97;;
79399;SDS011;68856;45.586;10.264;2023-05-10T06:36:07;5.18;;;3.00;;
79399;SDS011;68856;45.586;10.264;2023-05-10T06:38:33;3.63;;;3.22;;
79399;SDS011;68856;45.586;10.264;2023-05-10T06:40:59;3.90;;;3.60;;
79399;SDS011;68856;45.586;10.264;2023-05-10T06:43:26;3.35;;;2.95;;
79399;SDS011;68856;45.586;10.264;2023-05-10T06:45:53;3.45;;;3.15;;
79399;SDS011;68856;45.586;10.264;2023-05-10T06:48:19;5.38;;;3.42;;
79399;SDS011;68856;45.586;10.264;2023-05-10T06:50:46;4.00;;;3.35;;
79399;SDS011;68856;45.586;10.264;2023-05-10T06:53:12;4.20;;;3.33;;
79399;SDS011;68856;45.586;10.264;2023-05-10T06:55:39;4.88;;;3.50;;
79399;SDS011;68856;45.586;10.264;2023-05-10T06:58:05;5.63;;;4.03;;
79399;SDS011;68856;45.586;10.264;2023-05-10T07:00:31;4.15;;;3.35;;
79399;SDS011;68856;45.586;10.264;2023-05-10T07:02:58;4.38;;;3.65;;
79399;SDS011;68856;45.586;10.264;2023-05-10T07:05:24;4.07;;;3.05;;
79399;SDS011;68856;45.586;10.264;2023-05-10T07:07:52;3.75;;;2.80;;
79399;SDS011;68856;45.586;10.264;2023-05-10T07:10:19;3.70;;;3.40;;
79399;SDS011;68856;45.586;10.264;2023-05-10T07:12:45;3.72;;;3.15;;
79399;SDS011;68856;45.586;10.264;2023-05-10T07:15:11;3.55;;;2.70;;
79399;SDS011;68856;45.586;10.264;2023-05-10T07:17:37;3.10;;;2.80;;
79399;SDS011;68856;45.586;10.264;2023-05-10T07:20:04;3.20;;;2.90;;
79399;SDS011;68856;45.586;10.264;2023-05-10T07:22:31;6.32;;;3.08;;
79399;SDS011;68856;45.586;10.264;2023-05-10T07:24:57;3.58;;;2.75;;
79399;SDS011;68856;45.586;10.264;2023-05-10T07:27:23;2.70;;;2.50;;
79399;SDS011;68856;45.586;10.264;2023-05-10T07:29:50;4.70;;;2.88;;
79399;SDS011;68856;45.586;10.264;2023-05-10T07:32:16;2.75;;;2.50;;
79399;SDS011;68856;45.586;10.264;2023-05-10T07:34:42;3.42;;;2.80;;
79399;SDS011;68856;45.586;10.264;2023-05-10T07:37:09;2.60;;;2.40;;
79399;SDS011;68856;45.586;10.264;2023-05-10T07:39:35;3.20;;;2.45;;
79399;SDS011;68856;45.586;10.264;2023-05-10T07:42:02;3.05;;;2.50;;
79399;SDS011;68856;45.586;10.264;2023-05-10T07:44:28;2.97;;;2.63;;
79399;SDS011;68856;45.586;10.264;2023-05-10T07:46:55;3.17;;;2.88;;
79399;SDS011;68856;45.586;10.264;2023-05-10T07:49:21;3.50;;;3.20;;
79399;SDS011;68856;45.586;10.264;2023-05-10T07:51:49;3.47;;;3.17;;
79399;SDS011;68856;45.586;10.264;2023-05-10T07:54:15;3.10;;;2.80;;
79399;SDS011;68856;45.586;10.264;2023-05-10T07:56:42;3.78;;;3.28;;
79399;SDS011;68856;45.586;10.264;2023-05-10T08:01:42;3.17;;;2.83;;
79399;SDS011;68856;45.586;10.264;2023-05-10T08:04:09;3.42;;;3.13;;
79399;SDS011;68856;45.586;10.264;2023-05-10T08:06:36;3.58;;;2.58;;
79399;SDS011;68856;45.586;10.264;2023-05-10T08:09:02;3.40;;;3.10;;
79399;SDS011;68856;45.586;10.264;2023-05-10T08:11:29;2.88;;;2.67;;
79399;SDS011;68856;45.586;10.264;2023-05-10T08:13:55;3.05;;;2.85;;
79399;SDS011;68856;45.586;10.264;2023-05-10T08:16:21;3.80;;;2.50;;
79399;SDS011;68856;45.586;10.264;2023-05-10T08:18:48;3.58;;;3.05;;
79399;SDS011;68856;45.586;10.264;2023-05-10T08:21:15;2.95;;;2.65;;
79399;SDS011;68856;45.586;10.264;2023-05-10T08:23:42;3.25;;;2.97;;
79399;SDS011;68856;45.586;10.264;2023-05-10T08:26:08;3.00;;;2.80;;
79399;SDS011;68856;45.586;10.264;2023-05-10T08:28:35;3.60;;;3.30;;
79399;SDS011;68856;45.586;10.264;2023-05-10T08:31:01;3.90;;;3.60;;
79399;SDS011;68856;45.586;10.264;2023-05-10T08:33:29;3.63;;;3.33;;
79399;SDS011;68856;45.586;10.264;2023-05-10T08:35:55;3.60;;;3.30;;
79399;SDS011;68856;45.586;10.264;2023-05-10T08:38:22;3.35;;;3.05;;
79399;SDS011;68856;45.586;10.264;2023-05-10T08:40:48;3.60;;;3.30;;
79399;SDS011;68856;45.586;10.264;2023-05-10T08:43:21;3.90;;;3.53;;
79399;SDS011;68856;45.586;10.264;2023-05-10T08:45:51;3.70;;;3.40;;
79399;SDS011;68856;45.586;10.264;2023-05-10T08:48:21;8.23;;;4.20;;
79399;SDS011;68856;45.586;10.264;2023-05-10T08:50:49;6.10;;;4.45;;
79399;SDS011;68856;45.586;10.264;2023-05-10T08:53:22;4.65;;;4.18;;
79399;SDS011;68856;45.586;10.264;2023-05-10T08:55:52;4.77;;;4.37;;
79399;SDS011;68856;45.586;10.264;2023-05-10T08:58:19;8.52;;;4.15;;
79399;SDS011;68856;45.586;10.264;2023-05-10T09:00:46;5.47;;;4.32;;
79399;SDS011;68856;45.586;10.264;2023-05-10T09:03:14;4.68;;;4.20;;
79399;SDS011;68856;45.586;10.264;2023-05-10T09:05:41;5.20;;;4.70;;
79399;SDS011;68856;45.586;10.264;2023-05-10T09:08:07;5.22;;;4.70;;
79399;SDS011;68856;45.586;10.264;2023-05-10T09:10:34;5.45;;;4.95;;
79399;SDS011;68856;45.586;10.264;2023-05-10T09:13:02;4.88;;;4.35;;
79399;SDS011;68856;45.586;10.264;2023-05-10T09:15:29;4.18;;;3.80;;
79399;SDS011;68856;45.586;10.264;2023-05-10T09:17:55;4.53;;;4.05;;
79399;SDS011;68856;45.586;10.264;2023-05-10T09:20:24;4.70;;;4.30;;
79399;SDS011;68856;45.586;10.264;2023-05-10T09:22:50;4.53;;;4.05;;
79399;SDS011;68856;45.586;10.264;2023-05-10T09:25:17;5.20;;;4.70;;
79399;SDS011;68856;45.586;10.264;2023-05-10T09:27:47;5.35;;;4.85;;
79399;SDS011;68856;45.586;10.264;2023-05-10T09:30:34;6.10;;;5.32;;
79399;SDS011;68856;45.586;10.264;2023-05-10T09:33:00;6.85;;;5.20;;
79399;SDS011;68856;45.586;10.264;2023-05-10T09:35:28;5.60;;;4.97;;
79399;SDS011;68856;45.586;10.264;2023-05-10T09:37:56;4.90;;;4.40;;
79399;SDS011;68856;45.586;10.264;2023-05-10T09:40:26;4.90;;;4.50;;
79399;SDS011;68856;45.586;10.264;2023-05-10T09:43:01;5.43;;;4.57;;
79399;SDS011;68856;45.586;10.264;2023-05-10T09:45:35;5.32;;;4.82;;
79399;SDS011;68856;45.586;10.264;2023-05-10T09:48:02;5.53;;;5.03;;
79399;SDS011;68856;45.586;10.264;2023-05-10T09:50:29;5.70;;;5.10;;
79399;SDS011;68856;45.586;10.264;2023-05-10T09:52:57;5.85;;;5.25;;
79399;SDS011;68856;45.586;10.264;2023-05-10T09:55:41;4.68;;;4.28;;
79399;SDS011;68856;45.586;10.264;2023-05-10T09:58:09;5.00;;;4.20;;
79399;SDS011;68856;45.586;10.264;2023-05-10T10:00:38;4.35;;;3.95;;
79399;SDS011;68856;45.586;10.264;2023-05-10T10:03:05;4.50;;;3.50;;
79399;SDS011;68856;45.586;10.264;2023-05-10T10:05:39;4.53;;;3.13;;
79399;SDS011;68856;45.586;10.264;2023-05-10T10:08:10;3.80;;;3.50;;
79399;SDS011;68856;45.586;10.264;2023-05-10T10:10:38;3.53;;;3.22;;
79399;SDS011;68856;45.586;10.264;2023-05-10T10:13:11;3.50;;;3.20;;
79399;SDS011;68856;45.586;10.264;2023-05-10T10:15:38;3.60;;;3.30;;
79399;SDS011;68856;45.586;10.264;2023-05-10T10:18:04;36.70;;;19.58;;
79399;SDS011;68856;45.586;10.264;2023-05-10T10:20:31;10.90;;;7.60;;
79399;SDS011;68856;45.586;10.264;2023-05-10T10:22:57;6.45;;;5.70;;
79399;SDS011;68856;45.586;10.264;2023-05-10T10:25:24;5.15;;;4.22;;
79399;SDS011;68856;45.586;10.264;2023-05-10T10:35:31;5.25;;;4.75;;
79399;SDS011;68856;45.586;10.264;2023-05-10T10:37:58;4.40;;;4.00;;
79399;SDS011;68856;45.586;10.264;2023-05-10T10:40:29;5.10;;;4.55;;
79399;SDS011;68856;45.586;10.264;2023-05-10T10:42:57;5.63;;;4.85;;
79399;SDS011;68856;45.586;10.264;2023-05-10T10:45:43;9.95;;;6.05;;
79399;SDS011;68856;45.586;10.264;2023-05-10T10:48:22;5.72;;;4.55;;
79399;SDS011;68856;45.586;10.264;2023-05-10T10:50:55;5.35;;;4.85;;
79399;SDS011;68856;45.586;10.264;2023-05-10T10:53:23;5.07;;;4.28;;
79399;SDS011;68856;45.586;10.264;2023-05-10T10:56:02;5.18;;;4.68;;
79399;SDS011;68856;45.586;10.264;2023-05-10T10:58:32;4.57;;;4.18;;
79399;SDS011;68856;45.586;10.264;2023-05-10T11:01:10;6.38;;;5.15;;
79399;SDS011;68856;45.586;10.264;2023-05-10T11:03:41;6.05;;;5.40;;
79399;SDS011;68856;45.586;10.264;2023-05-10T11:06:36;5.57;;;5.05;;
79399;SDS011;68856;45.586;10.264;2023-05-10T11:09:10;6.30;;;5.55;;
79399;SDS011;68856;45.586;10.264;2023-05-10T11:12:10;4.65;;;4.25;;
79399;SDS011;68856;45.586;10.264;2023-05-10T11:14:33;5.30;;;4.07;;
79399;SDS011;68856;45.586;10.264;2023-05-10T11:16:59;14.73;;;10.00;;
79399;SDS011;68856;45.586;10.264;2023-05-10T11:19:27;5.70;;;4.78;;
79399;SDS011;68856;45.586;10.264;2023-05-10T11:24:29;3.05;;;2.75;;
79399;SDS011;68856;45.586;10.264;2023-05-10T11:26:55;2.35;;;1.58;;
79399;SDS011;68856;45.586;10.264;2023-05-10T11:29:22;2.53;;;2.33;;
79399;SDS011;68856;45.586;10.264;2023-05-10T11:31:51;2.65;;;2.42;;
79399;SDS011;68856;45.586;10.264;2023-05-10T11:34:26;3.10;;;2.90;;
79399;SDS011;68856;45.586;10.264;2023-05-10T11:37:00;3.28;;;1.98;;
79399;SDS011;68856;45.586;10.264;2023-05-10T11:39:27;3.53;;;3.03;;
79399;SDS011;68856;45.586;10.264;2023-05-10T11:41:54;4.68;;;4.25;;
79399;SDS011;68856;45.586;10.264;2023-05-10T11:44:21;5.13;;;3.95;;
79399;SDS011;68856;45.586;10.264;2023-05-10T11:46:47;3.42;;;3.13;;
79399;SDS011;68856;45.586;10.264;2023-05-10T11:49:14;5.60;;;4.15;;
79399;SDS011;68856;45.586;10.264;2023-05-10T11:51:41;11.48;;;6.88;;
79399;SDS011;68856;45.586;10.264;2023-05-10T11:54:10;7.10;;;4.82;;
79399;SDS011;68856;45.586;10.264;2023-05-10T11:56:37;6.05;;;5.43;;
79399;SDS011;68856;45.586;10.264;2023-05-10T11:59:04;7.15;;;6.07;;
79399;SDS011;68856;45.586;10.264;2023-05-10T12:01:31;6.88;;;6.03;;
79399;SDS011;68856;45.586;10.264;2023-05-10T12:03:58;5.78;;;5.18;;
79399;SDS011;68856;45.586;10.264;2023-05-10T12:06:29;6.50;;;5.90;;
79399;SDS011;68856;45.586;10.264;2023-05-10T12:08:58;6.50;;;5.47;;
79399;SDS011;68856;45.586;10.264;2023-05-10T12:11:30;6.03;;;5.25;;
79399;SDS011;68856;45.586;10.264;2023-05-10T12:13:57;6.10;;;5.32;;
79399;SDS011;68856;45.586;10.264;2023-05-10T12:16:24;6.03;;;5.43;;
79399;SDS011;68856;45.586;10.264;2023-05-10T12:18:53;6.20;;;5.37;;
79399;SDS011;68856;45.586;10.264;2023-05-10T12:21:24;6.60;;;6.00;;
79399;SDS011;68856;45.586;10.264;2023-05-10T12:23:53;6.25;;;5.65;;
79399;SDS011;68856;45.586;10.264;2023-05-10T12:26:24;6.75;;;6.07;;
79399;SDS011;68856;45.586;10.264;2023-05-10T12:28:53;6.05;;;5.43;;
79399;SDS011;68856;45.586;10.264;2023-05-10T12:31:20;6.05;;;5.45;;
79399;SDS011;68856;45.586;10.264;2023-05-10T12:33:46;6.85;;;6.15;;
79399;SDS011;68856;45.586;10.264;2023-05-10T12:36:15;7.78;;;5.80;;
79399;SDS011;68856;45.586;10.264;2023-05-10T12:38:42;6.22;;;5.63;;
79399;SDS011;68856;45.586;10.264;2023-05-10T12:41:13;7.28;;;6.53;;
79399;SDS011;68856;45.586;10.264;2023-05-10T12:43:41;6.95;;;5.90;;
79399;SDS011;68856;45.586;10.264;2023-05-10T12:46:11;7.53;;;6.38;;
79399;SDS011;68856;45.586;10.264;2023-05-10T12:48:39;5.32;;;4.82;;
79399;SDS011;68856;45.586;10.264;2023-05-10T12:51:06;5.20;;;4.70;;
79399;SDS011;68856;45.586;10.264;2023-05-10T12:53:40;5.05;;;4.65;;
79399;SDS011;68856;45.586;10.264;2023-05-10T12:56:06;5.45;;;4.95;;
79399;SDS011;68856;45.586;10.264;2023-05-10T12:58:33;4.82;;;4.30;;
79399;SDS011;68856;45.586;10.264;2023-05-10T13:01:00;4.70;;;4.15;;
79399;SDS011;68856;45.586;10.264;2023-05-10T13:03:27;7.47;;;4.78;;
79399;SDS011;68856;45.586;10.264;2023-05-10T13:05:53;4.90;;;4.35;;
79399;SDS011;68856;45.586;10.264;2023-05-10T13:08:19;7.50;;;5.20;;
79399;SDS011;68856;45.586;10.264;2023-05-10T13:10:45;6.72;;;6.05;;
79399;SDS011;68856;45.586;10.264;2023-05-10T13:13:12;6.53;;;5.85;;
79399;SDS011;68856;45.586;10.264;2023-05-10T13:15:38;6.40;;;5.80;;
79399;SDS011;68856;45.586;10.264;2023-05-10T13:18:04;6.60;;;5.70;;
79399;SDS011;68856;45.586;10.264;2023-05-10T13:20:30;5.78;;;5.18;;
79399;SDS011;68856;45.586;10.264;2023-05-10T13:22:56;5.60;;;5.05;;
79399;SDS011;68856;45.586;10.264;2023-05-10T13:25:23;6.00;;;5.40;;
79399;SDS011;68856;45.586;10.264;2023-05-10T13:27:49;6.30;;;5.70;;
79399;SDS011;68856;45.586;10.264;2023-05-10T13:30:15;6.45;;;5.85;;
79399;SDS011;68856;45.586;10.264;2023-05-10T13:32:42;6.82;;;5.75;;
79399;SDS011;68856;45.586;10.264;2023-05-10T13:35:08;8.10;;;6.40;;
79399;SDS011;68856;45.586;10.264;2023-05-10T13:37:34;6.20;;;5.60;;
79399;SDS011;68856;45.586;10.264;2023-05-10T13:40:02;6.82;;;5.95;;
79399;SDS011;68856;45.586;10.264;2023-05-10T13:42:29;6.90;;;5.97;;
79399;SDS011;68856;45.586;10.264;2023-05-10T13:44:56;5.65;;;5.05;;
79399;SDS011;68856;45.586;10.264;2023-05-10T13:47:23;7.30;;;6.28;;
79399;SDS011;68856;45.586;10.264;2023-05-10T13:49:49;5.82;;;5.13;;
79399;SDS011;68856;45.586;10.264;2023-05-10T13:52:16;5.65;;;5.13;;
79399;SDS011;68856;45.586;10.264;2023-05-10T13:54:43;5.25;;;4.75;;
79399;SDS011;68856;45.586;10.264;2023-05-10T13:57:09;6.13;;;5.53;;
79399;SDS011;68856;45.586;10.264;2023-05-10T13:59:37;6.22;;;5.63;;
79399;SDS011;68856;45.586;10.264;2023-05-10T14:02:03;6.47;;;5.78;;
79399;SDS011;68856;45.586;10.264;2023-05-10T14:04:30;7.00;;;6.05;;
79399;SDS011;68856;45.586;10.264;2023-05-10T14:06:56;7.38;;;6.13;;
79399;SDS011;68856;45.586;10.264;2023-05-10T14:09:23;6.47;;;5.97;;
79399;SDS011;68856;45.586;10.264;2023-05-10T14:11:49;6.15;;;5.55;;
79399;SDS011;68856;45.586;10.264;2023-05-10T14:14:16;7.05;;;5.90;;
79399;SDS011;68856;45.586;10.264;2023-05-10T14:16:45;6.53;;;5.97;;
79399;SDS011;68856;45.586;10.264;2023-05-10T14:19:11;6.32;;;5.72;;
79399;SDS011;68856;45.586;10.264;2023-05-10T14:21:37;6.22;;;5.63;;
79399;SDS011;68856;45.586;10.264;2023-05-10T14:24:04;6.70;;;6.00;;
79399;SDS011;68856;45.586;10.264;2023-05-10T14:26:32;6.55;;;5.90;;
79399;SDS011;68856;45.586;10.264;2023-05-10T14:28:59;6.63;;;5.95;;
79399;SDS011;68856;45.586;10.264;2023-05-10T14:31:26;7.63;;;6.93;;
79399;SDS011;68856;45.586;10.264;2023-05-10T14:33:52;7.50;;;6.70;;
79399;SDS011;68856;45.586;10.264;2023-05-10T14:36:19;8.52;;;6.97;;
79399;SDS011;68856;45.586;10.264;2023-05-10T14:38:45;9.00;;;8.20;;
79399;SDS011;68856;45.586;10.264;2023-05-10T14:41:11;8.70;;;7.90;;
79399;SDS011;68856;45.586;10.264;2023-05-10T14:43:42;9.02;;;8.13;;
79399;SDS011;68856;45.586;10.264;2023-05-10T14:46:08;8.80;;;7.80;;
79399;SDS011;68856;45.586;10.264;2023-05-10T14:48:35;8.70;;;7.90;;
79399;SDS011;68856;45.586;10.264;2023-05-10T14:51:01;8.68;;;7.93;;
79399;SDS011;68856;45.586;10.264;2023-05-10T14:53:28;8.98;;;8.18;;
79399;SDS011;68856;45.586;10.264;2023-05-10T14:55:54;8.80;;;7.90;;
79399;SDS011;68856;45.586;10.264;2023-05-10T14:58:21;7.90;;;7.10;;
79399;SDS011;68856;45.586;10.264;2023-05-10T15:00:47;7.97;;;6.95;;
79399;SDS011;68856;45.586;10.264;2023-05-10T15:03:13;10.10;;;8.15;;
79399;SDS011;68856;45.586;10.264;2023-05-10T15:05:40;8.43;;;7.63;;
79399;SDS011;68856;45.586;10.264;2023-05-10T15:08:06;8.55;;;7.65;;
79399;SDS011;68856;45.586;10.264;2023-05-10T15:10:34;7.63;;;6.82;;
79399;SDS011;68856;45.586;10.264;2023-05-10T15:13:03;8.25;;;7.45;;
79399;SDS011;68856;45.586;10.264;2023-05-10T15:15:29;7.00;;;6.40;;
79399;SDS011;68856;45.586;10.264;2023-05-10T15:17:56;7.45;;;6.75;;